Time;durP1;ratioP1;P1;durP2;ratioP2;P2;SDS_P1;SDS_P2;PMS_P1;PMS_P2;Temp;Humidity;BMP_temperature;BMP_pressure;BME280_temperature;BME280_humidity;BME280_pressure;Samples;Min_cycle;Max_cycle;Signal;HPM_P1;HPM_P2
2022/02/06 08:33:28;;;;;;;4.4;2.8;;;;;;;4.24;56.60547;938.7296;;;;
2022/02/06 08:35:55;;;;;;;7.7;3.7;;;;;;;6.14;50.23438;938.757;;;;
2022/02/06 08:40:35;;;;;;;12.9;5.4;;;;;;;6.88;48.63477;938.5592;;;;
2022/02/06 08:43:00;;;;;;;6.7;3.3;;;;;;;6.8;45.97754;938.558;;;;
2022/02/06 08:45:28;;;;;;;13;4.4;;;;;;;8.14;44.05469;938.4316;;;;
2022/02/06 08:47:51;;;;;;;10.6;4;;;;;;;8.01;42.44043;938.3478;;;;
2022/02/06 08:50:22;;;;;;;4.2;3;;;;;;;6.81;44.62012;938.3144;;;;
2022/02/06 08:52:47;;;;;;;7.3;2.5;;;;;;;7.38;42.77539;938.2861;;;;
2022/02/06 08:55:19;;;;;;;3.3;2.7;;;;;;;8.32;43.66406;938.1614;;;;
2022/02/06 08:57:47;;;;;;;6;3.2;;;;;;;7.52;41.23633;938.2965;;;;
2022/02/06 09:00:09;;;;;;;16.1;5.1;;;;;;;5.96;46.16992;938.3301;;;;
2022/02/06 09:02:38;;;;;;;6;3.6;;;;;;;5.75;46.88184;938.3759;;;;
2022/02/06 09:05:04;;;;;;;5.4;3.4;;;;;;;4.46;50.85938;938.3301;;;;
2022/02/06 09:07:33;;;;;;;7.7;3.2;;;;;;;4.11;51.70703;938.3819;;;;
2022/02/06 09:10:03;;;;;;;17;4.4;;;;;;;3.12;55.55859;938.3346;;;;
2022/02/06 09:12:28;;;;;;;3.9;2.3;;;;;;;3.29;55.2002;938.2294;;;;
2022/02/06 09:14:55;;;;;;;3.8;1.5;;;;;;;2.77;55.13184;938.2888;;;;
2022/02/06 09:17:26;;;;;;;5.6;1.7;;;;;;;2.44;56.16406;938.2417;;;;
2022/02/06 09:19:54;;;;;;;8.6;2.8;;;;;;;2.52;56.00684;938.1403;;;;
2022/02/06 09:22:24;;;;;;;7.7;1.9;;;;;;;2.47;53.63574;938.0556;;;;
2022/02/06 09:24:49;;;;;;;6.4;1.7;;;;;;;2.23;52.49707;937.9714;;;;
2022/02/06 09:27:20;;;;;;;10.7;3;;;;;;;2.37;53.99219;937.7757;;;;
2022/02/06 09:29:49;;;;;;;6.2;2.2;;;;;;;2.55;52.97559;937.7299;;;;
2022/02/06 09:37:15;;;;;;;8.7;2.2;;;;;;;3.26;54.11816;937.5691;;;;
2022/02/06 09:39:44;;;;;;;2.2;1.3;;;;;;;3.39;52.79883;937.3869;;;;
2022/02/06 09:42:14;;;;;;;3.4;1.8;;;;;;;3.46;53.02051;937.3521;;;;
2022/02/06 09:44:40;;;;;;;3.4;1.8;;;;;;;3.57;53.27051;937.4416;;;;
2022/02/06 09:47:05;;;;;;;1.6;1.3;;;;;;;3.93;50.88574;937.3208;;;;
2022/02/06 09:49:34;;;;;;;3.4;1.2;;;;;;;4.21;48.34375;937.3706;;;;
2022/02/06 09:51:59;;;;;;;1.5;1.3;;;;;;;4.38;48.00195;937.3436;;;;
2022/02/06 09:54:29;;;;;;;2.9;1.3;;;;;;;4.78;48.99414;937.3145;;;;
2022/02/06 09:56:54;;;;;;;2.2;1.3;;;;;;;5.11;48.63672;937.4444;;;;
2022/02/06 09:59:22;;;;;;;2.2;1.1;;;;;;;5.47;48.73535;937.5814;;;;
2022/02/06 10:01:48;;;;;;;1.9;1.1;;;;;;;6.05;48.16895;937.4617;;;;
2022/02/06 10:04:13;;;;;;;4.6;1.9;;;;;;;6.1;47.74414;937.4936;;;;
2022/02/06 10:06:42;;;;;;;3.3;1.7;;;;;;;5.61;49.79102;937.4773;;;;
2022/02/06 10:09:08;;;;;;;4.5;2.2;;;;;;;5.77;49.00586;937.4543;;;;
2022/02/06 10:11:35;;;;;;;14.1;4.4;;;;;;;5.8;50.09277;937.4213;;;;
2022/02/06 10:13:58;;;;;;;6.9;3.1;;;;;;;6.88;47.15137;937.3223;;;;
2022/02/06 10:16:35;;;;;;;10.8;3.6;;;;;;;7.13;45.43555;937.3484;;;;
2022/02/06 10:19:08;;;;;;;2.2;1.6;;;;;;;6.66;44.81934;937.3069;;;;
2022/02/06 10:21:37;;;;;;;3.5;1.7;;;;;;;6.51;45.88965;937.338;;;;
2022/02/06 10:24:08;;;;;;;2.5;1.5;;;;;;;6.46;44.24414;937.2316;;;;
2022/02/06 10:26:35;;;;;;;2.7;1.6;;;;;;;5.69;46.6377;937.1547;;;;
2022/02/06 10:28:59;;;;;;;2.6;1.3;;;;;;;5.81;47.13574;936.9944;;;;
2022/02/06 10:31:22;;;;;;;5.2;1.5;;;;;;;6.42;45.48535;936.9572;;;;
2022/02/06 10:33:52;;;;;;;9.5;2.5;;;;;;;7.03;42.25391;936.8397;;;;
2022/02/06 10:36:23;;;;;;;4.3;1.5;;;;;;;7.58;39.62012;936.6717;;;;
2022/02/06 10:38:51;;;;;;;2;1.3;;;;;;;8.06;37.88184;936.6389;;;;
2022/02/06 10:41:16;;;;;;;2.3;1.2;;;;;;;8.26;38.09375;936.5089;;;;
2022/02/06 10:43:44;;;;;;;2.2;1.2;;;;;;;8.48;38.97656;936.481;;;;
2022/02/06 10:46:09;;;;;;;1.6;1;;;;;;;8.41;38.40137;936.4578;;;;
2022/02/06 10:48:38;;;;;;;1.1;0.7;;;;;;;7.53;36.36133;936.434;;;;
2022/02/06 10:51:04;;;;;;;1.4;1.1;;;;;;;7.85;36.8877;936.3853;;;;
2022/02/06 10:53:35;;;;;;;1;0.9;;;;;;;7.96;36.08008;936.4061;;;;
2022/02/06 10:56:06;;;;;;;1.8;1.2;;;;;;;8.23;38.78418;936.3333;;;;
2022/02/06 10:58:31;;;;;;;0.9;0.8;;;;;;;8.42;38.81152;936.2097;;;;
2022/02/06 11:00:56;;;;;;;2.3;0.9;;;;;;;8.87;36.56543;936.2192;;;;
2022/02/06 11:03:25;;;;;;;1.7;1;;;;;;;8.52;38.35449;936.1619;;;;
2022/02/06 11:05:54;;;;;;;1.1;1;;;;;;;8.82;38.71094;936.2028;;;;
2022/02/06 11:08:18;;;;;;;1.6;1;;;;;;;8.87;37.1123;936.0453;;;;
2022/02/06 11:10:45;;;;;;;1.2;0.8;;;;;;;8.98;38.04297;936.1046;;;;
2022/02/06 11:13:15;;;;;;;1.5;1;;;;;;;9.14;37.79492;936.0623;;;;
2022/02/06 11:15:46;;;;;;;1.1;0.9;;;;;;;9.04;38.09277;936.0071;;;;
2022/02/06 11:18:10;;;;;;;1.7;1.1;;;;;;;9.06;36.65039;935.8557;;;;
2022/02/06 11:20:35;;;;;;;1.2;0.8;;;;;;;9.33;37.20801;935.7173;;;;
2022/02/06 11:23:05;;;;;;;3.6;1.5;;;;;;;9.65;37.88477;935.713;;;;
2022/02/06 11:25:32;;;;;;;2.8;1.2;;;;;;;9.88;37.55176;935.6245;;;;
2022/02/06 11:27:57;;;;;;;3.7;1;;;;;;;10.13;35.6123;935.7347;;;;
2022/02/06 11:30:27;;;;;;;1.8;1.1;;;;;;;9.36;36.57324;935.6644;;;;
2022/02/06 11:32:58;;;;;;;2.5;1;;;;;;;9.26;37.58984;935.5499;;;;
2022/02/06 11:35:29;;;;;;;1.3;1.1;;;;;;;8.68;38.92578;935.4832;;;;
2022/02/06 11:45:11;;;;;;;3.3;1.1;;;;;;;8.56;40.49414;935.2115;;;;
2022/02/06 11:47:36;;;;;;;1.8;1.1;;;;;;;8.68;40.33594;935.1736;;;;
2022/02/06 11:50:06;;;;;;;1.4;1.3;;;;;;;8.46;41.40527;935.1365;;;;
2022/02/06 11:52:26;;;;;;;1.5;1.3;;;;;;;8.69;41.92871;935.0309;;;;
2022/02/06 11:54:56;;;;;;;1.8;1.1;;;;;;;9.2;40.8291;934.9412;;;;
2022/02/06 11:57:22;;;;;;;2.4;1.2;;;;;;;9.38;40.09473;934.8422;;;;
2022/02/06 11:59:45;;;;;;;1.9;1;;;;;;;9.41;40.49512;934.838;;;;
2022/02/06 12:02:13;;;;;;;2.6;1.2;;;;;;;8.5;43.01172;934.796;;;;
2022/02/06 12:04:41;;;;;;;2.1;1.3;;;;;;;8.06;44.23926;934.7905;;;;
2022/02/06 12:07:12;;;;;;;2.7;1.3;;;;;;;8.03;44.66699;934.7599;;;;
2022/02/06 12:09:37;;;;;;;3;1.3;;;;;;;7.72;44.91895;934.7195;;;;
2022/02/06 12:12:03;;;;;;;4.2;1.3;;;;;;;7.4;45.48633;934.7411;;;;
2022/02/06 12:14:36;;;;;;;2.4;1.4;;;;;;;6.84;47.54395;934.6617;;;;
2022/02/06 12:17:15;;;;;;;3.2;1.2;;;;;;;7.16;47.25195;934.6016;;;;
2022/02/06 12:19:35;;;;;;;4.1;1.3;;;;;;;7.09;46.6084;934.6005;;;;
2022/02/06 12:22:00;;;;;;;2.4;1.3;;;;;;;7.29;46.86914;934.5714;;;;
2022/02/06 12:24:32;;;;;;;3;1.5;;;;;;;7.4;46.83496;934.585;;;;
2022/02/06 12:26:59;;;;;;;3;1.1;;;;;;;7.36;46.74023;934.4824;;;;
2022/02/06 12:29:25;;;;;;;1.8;1.1;;;;;;;7.53;45.9082;934.478;;;;
2022/02/06 12:32:00;;;;;;;2;1.1;;;;;;;6.94;47.39648;934.4481;;;;
2022/02/06 12:34:22;;;;;;;2.5;1.5;;;;;;;7.45;46.7168;934.5179;;;;
2022/02/06 12:37:27;;;;;;;4.9;1.5;;;;;;;7.63;46.34961;934.5067;;;;
2022/02/06 12:39:16;;;;;;;3.4;1.5;;;;;;;7.67;46.46777;934.4874;;;;
2022/02/06 12:41:44;;;;;;;3;1.8;;;;;;;7.49;46.65234;934.3451;;;;
2022/02/06 12:44:10;;;;;;;3.6;1.5;;;;;;;7.6;46.06445;934.3031;;;;
2022/02/06 12:46:39;;;;;;;2.4;1.2;;;;;;;7.53;47.17773;934.3028;;;;
2022/02/06 12:49:06;;;;;;;4.1;1.6;;;;;;;7.4;47.66309;934.3665;;;;
2022/02/06 12:51:31;;;;;;;3.2;1.7;;;;;;;7.28;47.68262;934.3314;;;;
2022/02/06 12:53:57;;;;;;;2;1.4;;;;;;;7.54;46.94141;934.2563;;;;
2022/02/06 12:56:22;;;;;;;7.5;4.8;;;;;;;7.19;48.3418;934.3708;;;;
2022/02/06 12:58:48;;;;;;;10.9;6.8;;;;;;;7.55;46.85156;934.3064;;;;
2022/02/06 13:01:16;;;;;;;5.7;3.1;;;;;;;7.58;46.70801;934.2703;;;;
2022/02/06 13:03:42;;;;;;;4.3;3.2;;;;;;;7.82;46.47363;934.2291;;;;
2022/02/06 13:06:14;;;;;;;6.7;4.5;;;;;;;7.94;46.40625;934.1528;;;;
2022/02/06 13:08:38;;;;;;;5.2;2.4;;;;;;;7.7;47.06152;934.2644;;;;
2022/02/06 13:11:05;;;;;;;1.9;1.3;;;;;;;7.59;46.44922;934.1365;;;;
2022/02/06 13:13:34;;;;;;;14.1;9.5;;;;;;;7.9;46.96973;934.2015;;;;
2022/02/06 13:16:19;;;;;;;4.9;4.1;;;;;;;8.06;46.02148;934.0681;;;;
2022/02/06 13:18:44;;;;;;;2.7;2.2;;;;;;;8.09;46.37695;934.0787;;;;
2022/02/06 13:21:14;;;;;;;5;3.1;;;;;;;8.12;45.99316;933.8055;;;;
2022/02/06 13:23:43;;;;;;;4.2;2.9;;;;;;;8.04;45.96191;933.9363;;;;
2022/02/06 13:26:08;;;;;;;2.4;1.5;;;;;;;8;45.83398;933.9483;;;;
2022/02/06 13:28:39;;;;;;;1.8;1.2;;;;;;;7.88;47.08105;933.9381;;;;
2022/02/06 13:31:02;;;;;;;2.1;1.2;;;;;;;7.9;47.68359;933.9359;;;;
2022/02/06 13:33:19;;;;;;;3.4;2.3;;;;;;;7.79;48.2959;933.7227;;;;
2022/02/06 13:35:46;;;;;;;2.3;1.6;;;;;;;7.75;49.25586;933.6817;;;;
2022/02/06 13:38:10;;;;;;;8.5;4.3;;;;;;;7.67;49.21289;933.7425;;;;
2022/02/06 13:40:34;;;;;;;18.3;9.4;;;;;;;7.64;48.63086;933.5353;;;;
2022/02/06 13:43:05;;;;;;;3.9;2.3;;;;;;;7.32;48.96875;933.3936;;;;
2022/02/06 13:45:30;;;;;;;6.3;3.4;;;;;;;7.56;48.48438;933.29;;;;
2022/02/06 13:47:59;;;;;;;23.6;11.8;;;;;;;7.51;48.66113;933.2134;;;;
2022/02/06 13:50:23;;;;;;;11.4;5.5;;;;;;;7.53;48.0166;933.2762;;;;
2022/02/06 13:52:49;;;;;;;26.9;13;;;;;;;7.42;48.28906;933.2487;;;;
2022/02/06 13:55:16;;;;;;;6.8;3.4;;;;;;;7.53;48.32324;933.1827;;;;
2022/02/06 13:57:46;;;;;;;4.6;2.4;;;;;;;7.54;49.06152;933.2065;;;;
2022/02/06 14:00:14;;;;;;;3.4;2.5;;;;;;;7.54;49.95801;933.1575;;;;
2022/02/06 14:02:42;;;;;;;2.9;2;;;;;;;7.45;48.55273;932.9576;;;;
2022/02/06 14:05:10;;;;;;;3.5;2;;;;;;;7.1;51.08301;932.9714;;;;
2022/02/06 14:07:32;;;;;;;4.5;2.9;;;;;;;7;50.56152;933.2191;;;;
2022/02/06 14:10:07;;;;;;;4.1;2.5;;;;;;;7.17;49.51855;933.1291;;;;
2022/02/06 14:12:32;;;;;;;5.2;2.3;;;;;;;7.08;50.49316;933.0179;;;;
2022/02/06 14:14:58;;;;;;;2.6;1.9;;;;;;;7.32;50.375;933.1394;;;;
2022/02/06 14:17:28;;;;;;;3.9;2.3;;;;;;;6.96;51.13574;933.1014;;;;
2022/02/06 14:19:58;;;;;;;4.9;1.9;;;;;;;6.95;50.19531;932.9628;;;;
2022/02/06 14:22:22;;;;;;;3;1.6;;;;;;;6.84;50.66797;933.0111;;;;
2022/02/06 14:24:48;;;;;;;2.8;1.5;;;;;;;6.89;50.95801;932.889;;;;
2022/02/06 14:27:13;;;;;;;3.7;1.9;;;;;;;6.86;51.73438;932.9875;;;;
2022/02/06 14:29:38;;;;;;;2.6;1.7;;;;;;;6.8;51.34277;932.7656;;;;
2022/02/06 14:32:05;;;;;;;2.4;1.4;;;;;;;6.81;50.67676;932.892;;;;
2022/02/06 14:34:30;;;;;;;2.5;1.7;;;;;;;6.76;51.05469;932.7722;;;;
2022/02/06 14:36:55;;;;;;;1.8;1.4;;;;;;;6.71;52.125;932.9606;;;;
2022/02/06 14:39:26;;;;;;;3.3;2.2;;;;;;;6.73;51.61621;932.937;;;;
2022/02/06 14:41:59;;;;;;;3.7;2.1;;;;;;;6.61;52.45215;932.9203;;;;
2022/02/06 14:44:15;;;;;;;2.2;1.5;;;;;;;6.61;51.51172;932.8945;;;;
2022/02/06 14:46:39;;;;;;;2.8;1.5;;;;;;;6.58;51.63281;932.989;;;;
2022/02/06 14:49:07;;;;;;;4.6;2.9;;;;;;;6.5;51.89453;932.8897;;;;
2022/02/06 14:51:30;;;;;;;3.9;2.6;;;;;;;6.48;52.63867;932.7305;;;;
2022/02/06 14:54:03;;;;;;;6.7;4;;;;;;;6.25;53.27832;933.0048;;;;
2022/02/06 14:56:25;;;;;;;7.2;3.5;;;;;;;6.17;53.73242;932.8222;;;;
2022/02/06 14:58:52;;;;;;;7.5;4.4;;;;;;;6.19;54.04004;932.6375;;;;
2022/02/06 15:01:17;;;;;;;8.2;4;;;;;;;6.02;53.9834;932.8645;;;;
2022/02/06 15:03:46;;;;;;;12.9;5.9;;;;;;;6.06;54.78027;932.6401;;;;
2022/02/06 15:06:11;;;;;;;12.5;6.7;;;;;;;5.84;55.10254;932.5226;;;;
2022/02/06 15:08:38;;;;;;;7.4;4.9;;;;;;;5.86;55.07129;932.4694;;;;
2022/02/06 15:11:04;;;;;;;6.7;4.4;;;;;;;5.97;55.02832;932.5759;;;;
2022/02/06 15:13:35;;;;;;;9.4;3.9;;;;;;;5.9;55.59473;932.4908;;;;
2022/02/06 15:16:13;;;;;;;4.2;2.5;;;;;;;5.92;54.91992;932.514;;;;
2022/02/06 15:18:39;;;;;;;2.3;1.7;;;;;;;5.99;53.88867;932.3508;;;;
2022/02/06 15:21:00;;;;;;;2.5;1.8;;;;;;;6.03;52.88867;932.2855;;;;
2022/02/06 15:23:32;;;;;;;8.5;4.1;;;;;;;5.87;54.93652;932.204;;;;
2022/02/06 15:26:01;;;;;;;6.3;3.2;;;;;;;5.98;55.12012;932.2473;;;;
2022/02/06 15:28:27;;;;;;;7;3.9;;;;;;;6.03;54.45898;931.907;;;;
2022/02/06 15:31:01;;;;;;;30;21.4;;;;;;;5.85;55.35059;932.0781;;;;
2022/02/06 15:33:35;;;;;;;6.3;5.4;;;;;;;5.91;55.17676;931.9537;;;;
2022/02/06 15:36:04;;;;;;;10.3;5.4;;;;;;;5.86;54.49414;931.7787;;;;
2022/02/06 15:38:31;;;;;;;13.4;4.8;;;;;;;5.84;56.11914;931.8789;;;;
2022/02/06 15:41:00;;;;;;;5.2;2.7;;;;;;;5.74;57.41602;931.5974;;;;
2022/02/06 15:43:25;;;;;;;2.6;1.9;;;;;;;5.72;55.94434;931.8063;;;;
2022/02/06 15:45:56;;;;;;;2.6;1.9;;;;;;;5.8;56.86914;931.9103;;;;
2022/02/06 15:48:29;;;;;;;2.7;2;;;;;;;5.52;58.20801;931.6484;;;;
2022/02/06 15:50:52;;;;;;;5;2.7;;;;;;;5.48;59.18457;931.6021;;;;
2022/02/06 15:53:19;;;;;;;8.5;3.5;;;;;;;5.41;58.97266;931.5242;;;;
2022/02/06 15:55:44;;;;;;;201.2;108.1;;;;;;;5.4;59.06055;931.4929;;;;
2022/02/06 15:58:10;;;;;;;68.5;35.5;;;;;;;5.61;58.44629;931.4742;;;;
2022/02/06 16:00:35;;;;;;;27.1;13.5;;;;;;;5.61;58.91016;931.2864;;;;
2022/02/06 16:03:04;;;;;;;82;47.9;;;;;;;5.3;59.39746;931.4992;;;;
2022/02/06 16:05:34;;;;;;;71.1;48.9;;;;;;;5.23;59.41016;931.2927;;;;
2022/02/06 16:07:59;;;;;;;57.1;33.2;;;;;;;5.24;59.85059;931.2139;;;;
2022/02/06 16:10:30;;;;;;;71;39.2;;;;;;;5.29;60.56836;931.3427;;;;
2022/02/06 16:13:00;;;;;;;50;29;;;;;;;5.32;60.03223;931.356;;;;
2022/02/06 16:15:25;;;;;;;22.8;13.8;;;;;;;5.3;61.98047;931.391;;;;
2022/02/06 16:17:51;;;;;;;30.5;16.2;;;;;;;4.86;64.05762;931.4817;;;;
2022/02/06 16:20:22;;;;;;;38.1;23;;;;;;;4.5;63.96973;931.5369;;;;
2022/02/06 16:22:49;;;;;;;35.8;20;;;;;;;4.74;63.57813;931.5555;;;;
2022/02/06 16:25:15;;;;;;;16.8;11;;;;;;;4.63;64.51758;931.1401;;;;
2022/02/06 16:27:44;;;;;;;23.6;12.7;;;;;;;4.52;64.98535;931.2045;;;;
2022/02/06 16:30:16;;;;;;;19.9;10;;;;;;;4.36;65.69238;931.145;;;;
2022/02/06 16:32:43;;;;;;;8.2;4.9;;;;;;;4.2;65.83789;931.2698;;;;
2022/02/06 16:35:08;;;;;;;9.7;6.4;;;;;;;4.28;65.30859;931.1205;;;;
2022/02/06 16:37:37;;;;;;;11.6;7;;;;;;;4.2;65.15137;930.8184;;;;
2022/02/06 16:40:05;;;;;;;21;11.7;;;;;;;4.19;65.18164;931.1158;;;;
2022/02/06 16:42:30;;;;;;;9.3;6;;;;;;;4.17;63.14355;931.3306;;;;
2022/02/06 16:45:03;;;;;;;5.1;3.4;;;;;;;4.11;62.80859;930.986;;;;
2022/02/06 16:47:31;;;;;;;11.2;3.8;;;;;;;4.27;62.17871;931.1336;;;;
2022/02/06 16:49:57;;;;;;;7.3;3.8;;;;;;;4.4;61.80469;930.8909;;;;
2022/02/06 16:52:23;;;;;;;8.9;5.4;;;;;;;4.54;63.1084;930.9811;;;;
2022/02/06 16:54:48;;;;;;;11.8;6;;;;;;;4.49;61.94141;930.8714;;;;
2022/02/06 16:57:16;;;;;;;9.6;6.1;;;;;;;4.75;60.00879;930.8798;;;;
2022/02/06 16:59:42;;;;;;;12.5;7;;;;;;;4.88;59.85742;930.8359;;;;
2022/02/06 17:02:07;;;;;;;3.9;2.2;;;;;;;5.1;55.0625;931.0667;;;;
2022/02/06 17:04:39;;;;;;;11.6;5.5;;;;;;;5.35;57.15918;931.0643;;;;
2022/02/06 17:07:08;;;;;;;7.9;5;;;;;;;5.47;58.35938;930.9631;;;;
2022/02/06 17:09:40;;;;;;;11;7.3;;;;;;;5.61;55.10645;930.8836;;;;
2022/02/06 17:12:14;;;;;;;5.7;3.3;;;;;;;5.75;54.94238;930.5406;;;;
2022/02/06 17:14:36;;;;;;;6.5;3.5;;;;;;;6.04;54.37109;930.8942;;;;
2022/02/06 17:17:01;;;;;;;5.7;3.1;;;;;;;6.55;48.95996;930.7299;;;;
2022/02/06 17:19:30;;;;;;;4.2;2;;;;;;;6.9;49.51953;930.6916;;;;
2022/02/06 17:21:56;;;;;;;5.2;1.9;;;;;;;7.12;48.85547;930.8469;;;;
2022/02/06 17:24:27;;;;;;;9.4;2.6;;;;;;;7.64;47.29297;930.8201;;;;
2022/02/06 17:26:55;;;;;;;5;1.8;;;;;;;7.87;46.89844;930.7787;;;;
2022/02/06 17:29:28;;;;;;;10.1;3;;;;;;;8.07;45.56836;930.9706;;;;
2022/02/06 17:31:53;;;;;;;2.3;1;;;;;;;8.5;43.81934;930.7686;;;;
2022/02/06 17:34:26;;;;;;;1.8;1.1;;;;;;;8.57;45.47461;931.095;;;;
2022/02/06 17:36:54;;;;;;;1.9;0.7;;;;;;;8.52;46.43457;931.0289;;;;
2022/02/06 17:39:19;;;;;;;1.3;0.6;;;;;;;8.62;45.93359;931.0694;;;;
2022/02/06 17:41:48;;;;;;;2.6;0.9;;;;;;;8.75;46.53906;931.1478;;;;
2022/02/06 17:44:13;;;;;;;2.3;1.3;;;;;;;8.65;47.69922;931.2227;;;;
2022/02/06 17:46:42;;;;;;;1.8;1.2;;;;;;;8.6;48.4209;931.3721;;;;
2022/02/06 17:49:06;;;;;;;1.2;0.9;;;;;;;8.53;49.31055;931.3677;;;;
2022/02/06 17:51:37;;;;;;;3.9;1.4;;;;;;;8.5;50.3291;931.5564;;;;
2022/02/06 17:54:08;;;;;;;1.1;1;;;;;;;8.56;50.59863;931.5511;;;;
2022/02/06 17:56:39;;;;;;;0.9;0.7;;;;;;;8.36;52.51855;931.5394;;;;
2022/02/06 17:59:10;;;;;;;4.6;2.3;;;;;;;8.23;55.05762;931.5389;;;;
2022/02/06 18:01:34;;;;;;;0.6;0.6;;;;;;;8.06;57.05664;931.7039;;;;
2022/02/06 18:04:02;;;;;;;0.9;0.7;;;;;;;7.86;59.63965;931.7566;;;;
2022/02/06 18:06:26;;;;;;;0.4;0.4;;;;;;;7.57;62.71777;931.853;;;;
2022/02/06 18:08:56;;;;;;;0.6;0.6;;;;;;;7.4;64.30273;931.7782;;;;
2022/02/06 18:11:20;;;;;;;0.7;0.6;;;;;;;7.23;66.97363;931.9489;;;;
2022/02/06 18:13:49;;;;;;;1.2;1.1;;;;;;;7.22;68.25195;931.8;;;;
2022/02/06 18:16:15;;;;;;;0.8;0.7;;;;;;;7.1;68.53906;931.7001;;;;
2022/02/06 18:18:44;;;;;;;0.6;0.6;;;;;;;7.04;69.87695;931.6852;;;;
2022/02/06 18:21:12;;;;;;;1.1;0.5;;;;;;;6.95;69.96582;931.5129;;;;
2022/02/06 18:23:42;;;;;;;0.3;0.3;;;;;;;6.9;69.20996;931.4617;;;;
2022/02/06 18:26:13;;;;;;;0.4;0.4;;;;;;;6.9;70.76074;931.445;;;;
2022/02/06 18:28:42;;;;;;;0.6;0.5;;;;;;;6.9;70.88379;931.4615;;;;
2022/02/06 18:31:10;;;;;;;0.3;0.3;;;;;;;6.93;70.36914;931.264;;;;
2022/02/06 18:33:35;;;;;;;0.5;0.5;;;;;;;6.98;70.84082;931.3383;;;;
2022/02/06 18:36:07;;;;;;;0.5;0.5;;;;;;;6.91;70.8623;931.0589;;;;
2022/02/06 18:38:36;;;;;;;0.4;0.4;;;;;;;7.1;69.5918;931.1049;;;;
2022/02/06 18:41:07;;;;;;;0.6;0.6;;;;;;;7.13;69.56445;931.0839;;;;
2022/02/06 18:43:26;;;;;;;1.4;1;;;;;;;7.12;70.37695;930.9175;;;;
2022/02/06 18:45:51;;;;;;;1.1;0.7;;;;;;;7.14;71.51465;930.9073;;;;
2022/02/06 18:48:19;;;;;;;0.4;0.4;;;;;;;7.1;71.40527;931.0811;;;;
2022/02/06 18:50:45;;;;;;;0.8;0.6;;;;;;;7.09;72.3418;931.0461;;;;
2022/02/06 18:53:14;;;;;;;0.5;0.5;;;;;;;7.06;73.11914;930.9247;;;;
2022/02/06 18:55:39;;;;;;;0.3;0.3;;;;;;;7.11;72.82422;930.6198;;;;
2022/02/06 18:58:06;;;;;;;0.3;0.3;;;;;;;7.07;74.16309;930.6273;;;;
2022/02/06 19:00:31;;;;;;;0.3;0.3;;;;;;;7.02;72.24121;930.6497;;;;
2022/02/06 19:02:56;;;;;;;3.8;1.7;;;;;;;6.98;74.1709;930.5058;;;;
2022/02/06 19:05:29;;;;;;;1.8;1.4;;;;;;;6.56;75.91895;930.4444;;;;
2022/02/06 19:07:53;;;;;;;1.9;1.5;;;;;;;6.33;77.26855;930.2896;;;;
2022/02/06 19:10:27;;;;;;;3.3;1.9;;;;;;;6.02;79.79102;930.3098;;;;
2022/02/06 19:12:49;;;;;;;1.8;1.5;;;;;;;6.06;79.50195;930.3206;;;;
2022/02/06 19:15:15;;;;;;;2;1.3;;;;;;;5.79;81.0459;930.0578;;;;
2022/02/06 19:17:44;;;;;;;2.6;2.2;;;;;;;5.85;80.83008;929.991;;;;
2022/02/06 19:20:19;;;;;;;4.9;3.8;;;;;;;5.85;83.8457;929.9933;;;;
2022/02/06 19:22:44;;;;;;;4.8;4.3;;;;;;;5.84;85.19922;929.8873;;;;
2022/02/06 19:25:10;;;;;;;2;1.6;;;;;;;5.91;83.49609;929.7772;;;;
2022/02/06 19:27:34;;;;;;;1.5;1.4;;;;;;;5.91;84.36816;929.7536;;;;
2022/02/06 19:30:01;;;;;;;1.7;1.6;;;;;;;5.93;85.33008;929.5467;;;;
2022/02/06 19:32:28;;;;;;;2.4;2.2;;;;;;;5.95;84.67773;929.4529;;;;
2022/02/06 19:34:58;;;;;;;3.6;2.9;;;;;;;5.88;84.02148;929.5008;;;;
2022/02/06 19:37:16;;;;;;;10;7.9;;;;;;;6.03;83.22559;929.2788;;;;
2022/02/06 19:39:45;;;;;;;3.9;3.3;;;;;;;6.08;83.26855;929.2548;;;;
2022/02/06 19:42:10;;;;;;;3.2;1.9;;;;;;;6.1;83.17188;929.2314;;;;
2022/02/06 19:44:38;;;;;;;2.5;2;;;;;;;5.87;85.09277;929.353;;;;
2022/02/06 19:47:04;;;;;;;2.2;1.5;;;;;;;5.74;84.44727;929.111;;;;
2022/02/06 19:49:37;;;;;;;2.4;1.8;;;;;;;5.88;85.58008;929.1216;;;;
2022/02/06 19:52:05;;;;;;;2.6;1.9;;;;;;;6.03;84.44727;929.0813;;;;
2022/02/06 19:54:31;;;;;;;2.7;2.4;;;;;;;6.09;84.23242;929.0061;;;;
2022/02/06 19:57:00;;;;;;;4.5;3.8;;;;;;;6.07;84.28516;928.8336;;;;
2022/02/06 19:59:21;;;;;;;2.1;1.7;;;;;;;6.06;84.36035;928.8557;;;;
2022/02/06 20:01:47;;;;;;;9.1;6.5;;;;;;;5.86;85.62012;928.938;;;;
2022/02/06 20:04:18;;;;;;;4.7;3.7;;;;;;;5.85;86.35254;928.8622;;;;
2022/02/06 20:06:47;;;;;;;1.4;1.3;;;;;;;5.93;85.69141;928.7797;;;;
2022/02/06 20:09:13;;;;;;;1.2;1.1;;;;;;;5.68;87.83301;928.5123;;;;
2022/02/06 20:11:41;;;;;;;1.4;1.1;;;;;;;5.53;88.33008;928.7234;;;;
2022/02/06 20:14:03;;;;;;;6.4;4.1;;;;;;;5.53;88.22754;928.537;;;;
2022/02/06 20:16:29;;;;;;;5.5;4;;;;;;;5.61;87.55859;928.5652;;;;
2022/02/06 20:18:56;;;;;;;2;1.8;;;;;;;5.52;85.20215;928.3656;;;;
2022/02/06 20:21:21;;;;;;;1.2;1.1;;;;;;;5.63;84.19824;928.3563;;;;
2022/02/06 20:23:50;;;;;;;2.1;1.8;;;;;;;5.75;83.55469;928.4689;;;;
2022/02/06 20:26:15;;;;;;;2.3;1.6;;;;;;;5.74;86.21973;928.6135;;;;
2022/02/06 20:28:43;;;;;;;2.6;2.4;;;;;;;5.74;86.89746;928.6094;;;;
2022/02/06 20:31:08;;;;;;;1.4;1.2;;;;;;;5.64;88.32031;928.5072;;;;
2022/02/06 20:33:39;;;;;;;1.7;1.1;;;;;;;5.4;87.76172;928.3591;;;;
2022/02/06 20:36:13;;;;;;;1.2;1.1;;;;;;;5.61;83.6416;928.3513;;;;
2022/02/06 20:38:41;;;;;;;3.5;2.4;;;;;;;5.88;84.59766;928.4257;;;;
2022/02/06 20:41:06;;;;;;;3.2;2.4;;;;;;;6.04;84.07617;928.4256;;;;
2022/02/06 20:43:32;;;;;;;1.9;1.7;;;;;;;;;;;;;
2022/02/06 20:45:59;;;;;;;7.9;4.5;;;;;;;;;;;;;
2022/02/06 20:48:24;;;;;;;8.5;4.1;;;;;;;;;;;;;
2022/02/06 20:50:48;;;;;;;3.2;2.4;;;;;;;;;;;;;
2022/02/06 20:53:16;;;;;;;2.4;1.8;;;;;;;;;;;;;
2022/02/06 20:55:39;;;;;;;3.9;2.2;;;;;;;;;;;;;
2022/02/06 20:58:07;;;;;;;5.1;3.4;;;;;;;;;;;;;
2022/02/06 21:00:32;;;;;;;8.5;3.6;;;;;;;;;;;;;
2022/02/06 21:02:59;;;;;;;5.6;3.3;;;;;;;;;;;;;
2022/02/06 21:05:24;;;;;;;7.1;4;;;;;;;;;;;;;
2022/02/06 21:07:53;;;;;;;7.8;3.9;;;;;;;;;;;;;
2022/02/06 21:10:19;;;;;;;7.8;4.8;;;;;;;;;;;;;
2022/02/06 21:12:47;;;;;;;14.7;7.1;;;;;;;;;;;;;
2022/02/06 21:15:06;;;;;;;14.9;6.5;;;;;;;;;;;;;
2022/02/06 21:17:32;;;;;;;24.8;10.2;;;;;;;;;;;;;
2022/02/06 21:19:58;;;;;;;23;8.8;;;;;;;;;;;;;
2022/02/06 21:22:24;;;;;;;13.5;6.8;;;;;;;;;;;;;
2022/02/06 21:24:49;;;;;;;6.1;3.3;;;;;;;;;;;;;
2022/02/06 21:27:17;;;;;;;2.5;1.8;;;;;;;;;;;;;
2022/02/06 21:29:42;;;;;;;2.6;2.3;;;;;;;;;;;;;
2022/02/06 21:32:09;;;;;;;4.1;2;;;;;;;;;;;;;
2022/02/06 21:34:34;;;;;;;4.1;2.2;;;;;;;;;;;;;
2022/02/06 21:37:01;;;;;;;67.5;38.6;;;;;;;;;;;;;
2022/02/06 21:39:27;;;;;;;10.8;8.6;;;;;;;;;;;;;
2022/02/06 21:41:53;;;;;;;2.3;1.9;;;;;;;;;;;;;
2022/02/06 21:44:17;;;;;;;2.1;1.8;;;;;;;;;;;;;
2022/02/06 21:46:43;;;;;;;3.9;1.9;;;;;;;;;;;;;
2022/02/06 21:49:08;;;;;;;2.5;2.3;;;;;;;;;;;;;
2022/02/06 21:51:36;;;;;;;2.6;1.6;;;;;;;;;;;;;
2022/02/06 21:54:01;;;;;;;2.1;1.8;;;;;;;;;;;;;
2022/02/06 21:56:28;;;;;;;1.2;1;;;;;;;;;;;;;
2022/02/06 21:58:53;;;;;;;2.1;1.7;;;;;;;;;;;;;
2022/02/06 22:01:20;;;;;;;5.1;2.6;;;;;;;;;;;;;
2022/02/06 22:03:46;;;;;;;3.3;2.2;;;;;;;;;;;;;
2022/02/06 22:06:15;;;;;;;7.2;4.7;;;;;;;;;;;;;
2022/02/06 22:08:45;;;;;;;5.9;3.4;;;;;;;;;;;;;
2022/02/06 22:11:19;;;;;;;3;2.2;;;;;;;;;;;;;
2022/02/06 22:23:18;;;;;;;3;1.6;;;;;;;;;;;;;
2022/02/06 22:28:51;;;;;;;1.5;1.3;;;;;;;;;;;;;
2022/02/06 22:30:29;;;;;;;1.3;1;;;;;;;;;;;;;
2022/02/06 22:32:54;;;;;;;0.7;0.7;;;;;;;;;;;;;
2022/02/06 22:35:19;;;;;;;1.5;1;;;;;;;;;;;;;
2022/02/06 22:37:44;;;;;;;1.2;1;;;;;;;;;;;;;
2022/02/06 22:40:10;;;;;;;0.9;0.7;;;;;;;;;;;;;
2022/02/06 22:42:35;;;;;;;1.5;0.9;;;;;;;;;;;;;
2022/02/06 22:45:00;;;;;;;0.5;0.5;;;;;;;;;;;;;
2022/02/06 22:47:26;;;;;;;1;0.5;;;;;;;;;;;;;
2022/02/06 22:49:52;;;;;;;0.8;0.6;;;;;;;;;;;;;
2022/02/06 22:52:20;;;;;;;1.1;0.8;;;;;;;;;;;;;
2022/02/06 22:54:45;;;;;;;2.2;0.8;;;;;;;;;;;;;
2022/02/06 22:57:10;;;;;;;1.8;1.2;;;;;;;;;;;;;
2022/02/06 22:59:36;;;;;;;1.1;1;;;;;;;;;;;;;
2022/02/06 23:02:01;;;;;;;3.4;0.7;;;;;;;;;;;;;
2022/02/06 23:04:28;;;;;;;1.1;0.8;;;;;;;;;;;;;
2022/02/06 23:06:53;;;;;;;1.1;0.7;;;;;;;;;;;;;
2022/02/06 23:09:20;;;;;;;1.3;0.7;;;;;;;;;;;;;
2022/02/06 23:11:45;;;;;;;1.7;0.8;;;;;;;;;;;;;
2022/02/06 23:14:11;;;;;;;0.9;0.8;;;;;;;;;;;;;
2022/02/06 23:16:37;;;;;;;2.3;1.2;;;;;;;;;;;;;
2022/02/06 23:19:04;;;;;;;2.6;0.9;;;;;;;;;;;;;
2022/02/06 23:21:28;;;;;;;0.8;0.7;;;;;;;;;;;;;
2022/02/06 23:23:53;;;;;;;1;0.6;;;;;;;;;;;;;
2022/02/06 23:26:19;;;;;;;11.8;10.6;;;;;;;;;;;;;
2022/02/06 23:28:44;;;;;;;1.7;1.6;;;;;;;;;;;;;
2022/02/06 23:31:09;;;;;;;1.1;0.8;;;;;;;;;;;;;
2022/02/06 23:33:36;;;;;;;0.9;0.6;;;;;;;;;;;;;
2022/02/06 23:36:01;;;;;;;0.5;0.5;;;;;;;;;;;;;
2022/02/06 23:38:28;;;;;;;0.5;0.3;;;;;;;;;;;;;
2022/02/06 23:40:53;;;;;;;1.2;0.8;;;;;;;;;;;;;
2022/02/06 23:43:21;;;;;;;0.7;0.7;;;;;;;;;;;;;
2022/02/06 23:45:47;;;;;;;1.3;0.7;;;;;;;;;;;;;
2022/02/06 23:48:11;;;;;;;1.2;0.8;;;;;;;;;;;;;
2022/02/06 23:50:42;;;;;;;1.6;0.6;;;;;;;;;;;;;
2022/02/06 23:53:10;;;;;;;1.1;0.6;;;;;;;;;;;;;
2022/02/06 23:55:34;;;;;;;0.9;0.4;;;;;;;;;;;;;
2022/02/06 23:58:00;;;;;;;0.6;0.5;;;;;;;;;;;;;
